Portada
METAR-TAF:

METAR-TAF

Aeroports :

Army Air Corps Middle Wallop

Middle Wallop, Anglaterra

latitud: 51-09N, longitud: 001-34W, altitud: 91 m

Observació

L'informe es va fer fa 1 hora i 8 minuts, a les 02:50 UTC
Vent 3 kt del Sud
Temperatura 7°C
Humitat 93%
Pressió 1007 hPa
Visibilitat 10 km o més

METAR: EGVP 240250Z AUTO 17003KT 9999 FEW045/// 07/06 Q1007

Hora: 04:58 (03:58 UTC)

Pronòstic

L'informe es va fer fa 11 hores i 20 minuts, a les 16:38 UTC
Pronòstic vàlid del 23 a les 18 UTC al 23 a les 22 UTC
Vent 4 kt del Oest/Sud-Oest
Visibilitat 10 km o més
Núvols disperses a una alçada de 4500 ft

TAF: EGVP 231638Z 2318/2322 25004KT 9999 SCT045

Observacions i pronòstics meteorològics de més de 4000 aeroports (METAR i TAF).

Les estacions disponibles són els punts grocs i vermells al mapa.

Posi el ratolí al punt desitjat per veure el nom de l'estació.

Feu clic per veure les observacions i els pronòstics meteorològics.

Per canviar el mapa: feu clic els botons verds amb una creu de color negre per apropar; al botó verd amb un guió per allunyar la imatge; o en les fletxes verdes per a mapes adjacents.


METAR-TAF: